sensor_id;sensor_type;location;lat;lon;timestamp;temperature;humidity
43561;DHT22;32305;46.410;17.394;2022-12-24T00:01:03;20.60;40.10
43561;DHT22;32305;46.410;17.394;2022-12-24T00:03:31;20.60;40.10
43561;DHT22;32305;46.410;17.394;2022-12-24T00:05:58;20.60;40.10
43561;DHT22;32305;46.410;17.394;2022-12-24T00:08:25;20.60;40.10
43561;DHT22;32305;46.410;17.394;2022-12-24T00:10:53;20.60;40.10
43561;DHT22;32305;46.410;17.394;2022-12-24T00:13:20;20.60;40.20
43561;DHT22;32305;46.410;17.394;2022-12-24T00:15:48;20.60;40.10
43561;DHT22;32305;46.410;17.394;2022-12-24T00:18:15;20.60;40.10
43561;DHT22;32305;46.410;17.394;2022-12-24T00:20:46;20.60;40.10
43561;DHT22;32305;46.410;17.394;2022-12-24T00:23:15;20.60;40.20
43561;DHT22;32305;46.410;17.394;2022-12-24T00:25:42;20.60;40.20
43561;DHT22;32305;46.410;17.394;2022-12-24T00:28:09;20.60;40.20
43561;DHT22;32305;46.410;17.394;2022-12-24T00:30:38;20.60;40.20
43561;DHT22;32305;46.410;17.394;2022-12-24T00:33:05;20.60;40.20
43561;DHT22;32305;46.410;17.394;2022-12-24T00:35:34;20.60;40.20
43561;DHT22;32305;46.410;17.394;2022-12-24T00:38:02;20.60;40.20
43561;DHT22;32305;46.410;17.394;2022-12-24T00:40:30;20.60;40.20
43561;DHT22;32305;46.410;17.394;2022-12-24T00:42:58;20.60;40.20
43561;DHT22;32305;46.410;17.394;2022-12-24T00:45:25;20.60;40.20
43561;DHT22;32305;46.410;17.394;2022-12-24T00:47:55;20.60;40.20
43561;DHT22;32305;46.410;17.394;2022-12-24T00:50:22;20.50;40.10
43561;DHT22;32305;46.410;17.394;2022-12-24T00:52:49;20.50;40.10
43561;DHT22;32305;46.410;17.394;2022-12-24T00:55:16;20.50;40.10
43561;DHT22;32305;46.410;17.394;2022-12-24T00:57:43;20.50;40.10
43561;DHT22;32305;46.410;17.394;2022-12-24T01:00:10;20.50;40.20
43561;DHT22;32305;46.410;17.394;2022-12-24T01:02:38;20.50;40.20
43561;DHT22;32305;46.410;17.394;2022-12-24T01:05:05;20.50;40.20
43561;DHT22;32305;46.410;17.394;2022-12-24T01:07:43;20.50;40.20
43561;DHT22;32305;46.410;17.394;2022-12-24T01:10:12;20.50;40.20
43561;DHT22;32305;46.410;17.394;2022-12-24T01:12:40;20.50;40.20
43561;DHT22;32305;46.410;17.394;2022-12-24T01:15:08;20.50;40.20
43561;DHT22;32305;46.410;17.394;2022-12-24T01:17:36;20.50;40.20
43561;DHT22;32305;46.410;17.394;2022-12-24T01:20:04;20.50;40.20
43561;DHT22;32305;46.410;17.394;2022-12-24T01:22:32;20.60;40.30
43561;DHT22;32305;46.410;17.394;2022-12-24T01:24:59;20.60;40.30
43561;DHT22;32305;46.410;17.394;2022-12-24T01:27:26;20.60;40.30
43561;DHT22;32305;46.410;17.394;2022-12-24T01:29:53;20.60;40.30
43561;DHT22;32305;46.410;17.394;2022-12-24T01:32:20;20.50;40.30
43561;DHT22;32305;46.410;17.394;2022-12-24T01:34:47;20.60;40.30
43561;DHT22;32305;46.410;17.394;2022-12-24T01:37:14;20.60;40.30
43561;DHT22;32305;46.410;17.394;2022-12-24T01:39:42;20.60;40.30
43561;DHT22;32305;46.410;17.394;2022-12-24T01:42:18;20.60;40.30
43561;DHT22;32305;46.410;17.394;2022-12-24T01:48:30;20.50;40.20
43561;DHT22;32305;46.410;17.394;2022-12-24T01:51:19;20.50;40.20
43561;DHT22;32305;46.410;17.394;2022-12-24T01:53:57;20.50;40.20
43561;DHT22;32305;46.410;17.394;2022-12-24T01:56:28;20.50;40.20
43561;DHT22;32305;46.410;17.394;2022-12-24T01:59:01;20.50;40.20
43561;DHT22;32305;46.410;17.394;2022-12-24T02:01:29;20.50;40.20
43561;DHT22;32305;46.410;17.394;2022-12-24T02:03:56;20.50;40.20
43561;DHT22;32305;46.410;17.394;2022-12-24T02:06:24;20.50;40.20
43561;DHT22;32305;46.410;17.394;2022-12-24T02:08:51;20.50;40.20
43561;DHT22;32305;46.410;17.394;2022-12-24T02:11:20;20.50;40.20
43561;DHT22;32305;46.410;17.394;2022-12-24T02:13:52;20.50;40.20
43561;DHT22;32305;46.410;17.394;2022-12-24T02:16:48;20.50;40.20
43561;DHT22;32305;46.410;17.394;2022-12-24T02:19:54;20.50;40.20
43561;DHT22;32305;46.410;17.394;2022-12-24T02:23:00;20.50;40.30
43561;DHT22;32305;46.410;17.394;2022-12-24T02:32:01;20.50;40.30
43561;DHT22;32305;46.410;17.394;2022-12-24T02:34:37;20.50;40.30
43561;DHT22;32305;46.410;17.394;2022-12-24T02:37:15;20.50;40.30
43561;DHT22;32305;46.410;17.394;2022-12-24T02:39:59;20.50;40.30
43561;DHT22;32305;46.410;17.394;2022-12-24T02:42:34;20.50;40.30
43561;DHT22;32305;46.410;17.394;2022-12-24T02:45:13;20.50;40.30
43561;DHT22;32305;46.410;17.394;2022-12-24T02:47:41;20.50;40.30
43561;DHT22;32305;46.410;17.394;2022-12-24T02:50:12;20.50;40.30
43561;DHT22;32305;46.410;17.394;2022-12-24T02:52:42;20.50;40.30
43561;DHT22;32305;46.410;17.394;2022-12-24T02:55:13;20.50;40.30
43561;DHT22;32305;46.410;17.394;2022-12-24T02:58:06;20.50;40.30
43561;DHT22;32305;46.410;17.394;2022-12-24T03:04:06;20.50;40.30
43561;DHT22;32305;46.410;17.394;2022-12-24T03:06:51;20.50;40.30
43561;DHT22;32305;46.410;17.394;2022-12-24T03:09:54;20.50;40.30
43561;DHT22;32305;46.410;17.394;2022-12-24T03:12:31;20.50;40.30
43561;DHT22;32305;46.410;17.394;2022-12-24T03:14:59;20.50;40.30
43561;DHT22;32305;46.410;17.394;2022-12-24T03:17:27;20.50;40.30
43561;DHT22;32305;46.410;17.394;2022-12-24T03:19:54;20.50;40.40
43561;DHT22;32305;46.410;17.394;2022-12-24T03:22:23;20.50;40.40
43561;DHT22;32305;46.410;17.394;2022-12-24T03:24:51;20.50;40.40
43561;DHT22;32305;46.410;17.394;2022-12-24T03:27:18;20.50;40.40
43561;DHT22;32305;46.410;17.394;2022-12-24T03:29:46;20.50;40.40
43561;DHT22;32305;46.410;17.394;2022-12-24T03:32:13;20.50;40.40
43561;DHT22;32305;46.410;17.394;2022-12-24T03:34:40;20.50;40.40
43561;DHT22;32305;46.410;17.394;2022-12-24T03:37:07;20.50;40.40
43561;DHT22;32305;46.410;17.394;2022-12-24T03:39:34;20.50;40.40
43561;DHT22;32305;46.410;17.394;2022-12-24T03:42:02;20.50;40.40
43561;DHT22;32305;46.410;17.394;2022-12-24T03:44:29;20.50;40.50
43561;DHT22;32305;46.410;17.394;2022-12-24T03:46:56;20.40;40.40
43561;DHT22;32305;46.410;17.394;2022-12-24T03:49:23;20.50;40.50
43561;DHT22;32305;46.410;17.394;2022-12-24T03:51:50;20.50;40.40
43561;DHT22;32305;46.410;17.394;2022-12-24T03:54:17;20.50;40.40
43561;DHT22;32305;46.410;17.394;2022-12-24T03:56:44;20.50;40.40
43561;DHT22;32305;46.410;17.394;2022-12-24T03:59:11;20.50;40.40
43561;DHT22;32305;46.410;17.394;2022-12-24T04:01:38;20.50;40.40
43561;DHT22;32305;46.410;17.394;2022-12-24T04:04:05;20.50;40.40
43561;DHT22;32305;46.410;17.394;2022-12-24T04:06:33;20.50;40.40
43561;DHT22;32305;46.410;17.394;2022-12-24T04:09:00;20.50;40.50
43561;DHT22;32305;46.410;17.394;2022-12-24T04:11:31;20.50;40.40
43561;DHT22;32305;46.410;17.394;2022-12-24T04:13:58;20.50;40.50
43561;DHT22;32305;46.410;17.394;2022-12-24T04:16:25;20.50;40.40
43561;DHT22;32305;46.410;17.394;2022-12-24T04:18:53;20.50;40.40
43561;DHT22;32305;46.410;17.394;2022-12-24T04:21:20;20.50;40.40
43561;DHT22;32305;46.410;17.394;2022-12-24T04:23:47;20.50;40.40
43561;DHT22;32305;46.410;17.394;2022-12-24T04:26:14;20.50;40.50
43561;DHT22;32305;46.410;17.394;2022-12-24T04:28:42;20.50;40.40
43561;DHT22;32305;46.410;17.394;2022-12-24T04:31:14;20.50;40.50
43561;DHT22;32305;46.410;17.394;2022-12-24T04:33:42;20.50;40.40
43561;DHT22;32305;46.410;17.394;2022-12-24T04:36:12;20.50;40.50
43561;DHT22;32305;46.410;17.394;2022-12-24T04:38:40;20.40;40.50
43561;DHT22;32305;46.410;17.394;2022-12-24T04:41:16;20.50;40.50
43561;DHT22;32305;46.410;17.394;2022-12-24T04:43:51;20.40;40.50
43561;DHT22;32305;46.410;17.394;2022-12-24T04:46:21;20.40;40.40
43561;DHT22;32305;46.410;17.394;2022-12-24T04:48:49;20.40;40.50
43561;DHT22;32305;46.410;17.394;2022-12-24T04:51:17;20.40;40.50
43561;DHT22;32305;46.410;17.394;2022-12-24T04:53:45;20.40;40.40
43561;DHT22;32305;46.410;17.394;2022-12-24T04:56:15;20.40;40.50
43561;DHT22;32305;46.410;17.394;2022-12-24T04:58:43;20.40;40.50
43561;DHT22;32305;46.410;17.394;2022-12-24T05:01:17;20.40;40.50
43561;DHT22;32305;46.410;17.394;2022-12-24T05:03:44;20.40;40.50
43561;DHT22;32305;46.410;17.394;2022-12-24T05:06:14;20.40;41.00
43561;DHT22;32305;46.410;17.394;2022-12-24T05:08:41;20.40;40.50
43561;DHT22;32305;46.410;17.394;2022-12-24T05:11:11;20.40;40.50
43561;DHT22;32305;46.410;17.394;2022-12-24T05:13:42;20.40;40.50
43561;DHT22;32305;46.410;17.394;2022-12-24T05:16:15;20.40;40.50
43561;DHT22;32305;46.410;17.394;2022-12-24T05:18:42;20.40;40.50
43561;DHT22;32305;46.410;17.394;2022-12-24T05:21:13;20.40;40.50
43561;DHT22;32305;46.410;17.394;2022-12-24T05:23:41;20.40;40.50
43561;DHT22;32305;46.410;17.394;2022-12-24T05:26:39;20.40;40.50
43561;DHT22;32305;46.410;17.394;2022-12-24T05:29:08;20.40;40.50
43561;DHT22;32305;46.410;17.394;2022-12-24T05:31:37;20.40;40.50
43561;DHT22;32305;46.410;17.394;2022-12-24T05:34:06;20.40;40.50
43561;DHT22;32305;46.410;17.394;2022-12-24T05:36:34;20.50;40.50
43561;DHT22;32305;46.410;17.394;2022-12-24T05:39:02;20.40;40.50
43561;DHT22;32305;46.410;17.394;2022-12-24T05:41:29;20.40;40.50
43561;DHT22;32305;46.410;17.394;2022-12-24T05:43:57;20.40;40.50
43561;DHT22;32305;46.410;17.394;2022-12-24T05:46:24;20.40;40.50
43561;DHT22;32305;46.410;17.394;2022-12-24T05:48:52;20.40;40.50
43561;DHT22;32305;46.410;17.394;2022-12-24T05:51:20;20.40;40.50
43561;DHT22;32305;46.410;17.394;2022-12-24T05:53:49;20.40;40.50
43561;DHT22;32305;46.410;17.394;2022-12-24T05:56:19;20.40;40.50
43561;DHT22;32305;46.410;17.394;2022-12-24T05:58:48;20.50;40.50
43561;DHT22;32305;46.410;17.394;2022-12-24T06:01:15;20.50;40.50
43561;DHT22;32305;46.410;17.394;2022-12-24T06:03:43;20.50;40.40
43561;DHT22;32305;46.410;17.394;2022-12-24T06:06:12;20.50;40.40
43561;DHT22;32305;46.410;17.394;2022-12-24T06:08:40;20.50;40.30
43561;DHT22;32305;46.410;17.394;2022-12-24T06:11:12;20.60;40.30
43561;DHT22;32305;46.410;17.394;2022-12-24T06:13:41;20.60;40.30
43561;DHT22;32305;46.410;17.394;2022-12-24T06:16:12;20.60;40.30
43561;DHT22;32305;46.410;17.394;2022-12-24T06:18:40;20.60;40.20
43561;DHT22;32305;46.410;17.394;2022-12-24T06:21:08;20.60;40.20
43561;DHT22;32305;46.410;17.394;2022-12-24T06:23:37;20.70;40.20
43561;DHT22;32305;46.410;17.394;2022-12-24T06:26:06;20.60;40.10
43561;DHT22;32305;46.410;17.394;2022-12-24T06:28:35;20.70;40.10
43561;DHT22;32305;46.410;17.394;2022-12-24T06:31:04;20.70;40.10
43561;DHT22;32305;46.410;17.394;2022-12-24T06:33:32;20.70;40.10
43561;DHT22;32305;46.410;17.394;2022-12-24T06:36:00;20.70;40.00
43561;DHT22;32305;46.410;17.394;2022-12-24T06:38:30;20.70;40.00
43561;DHT22;32305;46.410;17.394;2022-12-24T06:40:58;20.80;40.00
43561;DHT22;32305;46.410;17.394;2022-12-24T06:43:25;20.80;40.00
43561;DHT22;32305;46.410;17.394;2022-12-24T06:45:52;20.70;39.90
43561;DHT22;32305;46.410;17.394;2022-12-24T06:48:19;20.80;40.00
43561;DHT22;32305;46.410;17.394;2022-12-24T06:50:47;20.80;40.00
43561;DHT22;32305;46.410;17.394;2022-12-24T06:53:14;20.80;39.90
43561;DHT22;32305;46.410;17.394;2022-12-24T06:55:42;20.80;39.90
43561;DHT22;32305;46.410;17.394;2022-12-24T06:58:09;20.80;39.90
43561;DHT22;32305;46.410;17.394;2022-12-24T07:00:36;20.80;39.80
43561;DHT22;32305;46.410;17.394;2022-12-24T07:03:03;20.90;39.90
43561;DHT22;32305;46.410;17.394;2022-12-24T07:05:30;20.90;39.90
43561;DHT22;32305;46.410;17.394;2022-12-24T07:07:58;20.90;39.80
43561;DHT22;32305;46.410;17.394;2022-12-24T07:10:25;20.90;39.80
43561;DHT22;32305;46.410;17.394;2022-12-24T07:12:52;20.90;39.70
43561;DHT22;32305;46.410;17.394;2022-12-24T07:15:20;20.90;39.70
43561;DHT22;32305;46.410;17.394;2022-12-24T07:17:47;20.90;39.70
43561;DHT22;32305;46.410;17.394;2022-12-24T07:20:14;20.90;39.70
43561;DHT22;32305;46.410;17.394;2022-12-24T07:22:41;21.00;39.70
43561;DHT22;32305;46.410;17.394;2022-12-24T07:25:09;21.00;39.70
43561;DHT22;32305;46.410;17.394;2022-12-24T07:27:38;21.00;39.70
43561;DHT22;32305;46.410;17.394;2022-12-24T07:30:05;21.00;39.60
43561;DHT22;32305;46.410;17.394;2022-12-24T07:32:32;21.00;39.60
43561;DHT22;32305;46.410;17.394;2022-12-24T07:35:00;21.00;39.50
43561;DHT22;32305;46.410;17.394;2022-12-24T07:37:27;21.10;39.60
43561;DHT22;32305;46.410;17.394;2022-12-24T07:39:54;21.10;39.50
43561;DHT22;32305;46.410;17.394;2022-12-24T07:42:21;21.10;39.50
43561;DHT22;32305;46.410;17.394;2022-12-24T07:44:48;21.10;39.50
43561;DHT22;32305;46.410;17.394;2022-12-24T07:47:15;21.10;39.40
43561;DHT22;32305;46.410;17.394;2022-12-24T07:49:42;21.20;39.50
43561;DHT22;32305;46.410;17.394;2022-12-24T07:52:09;21.20;39.40
43561;DHT22;32305;46.410;17.394;2022-12-24T07:54:37;21.20;39.40
43561;DHT22;32305;46.410;17.394;2022-12-24T07:57:04;21.20;39.30
43561;DHT22;32305;46.410;17.394;2022-12-24T07:59:31;21.30;39.40
43561;DHT22;32305;46.410;17.394;2022-12-24T08:01:58;21.30;39.30
43561;DHT22;32305;46.410;17.394;2022-12-24T08:04:25;21.30;39.20
43561;DHT22;32305;46.410;17.394;2022-12-24T08:06:52;21.40;39.20
43561;DHT22;32305;46.410;17.394;2022-12-24T08:09:19;21.40;39.20
43561;DHT22;32305;46.410;17.394;2022-12-24T08:11:47;21.40;39.20
43561;DHT22;32305;46.410;17.394;2022-12-24T08:14:18;21.40;39.10
43561;DHT22;32305;46.410;17.394;2022-12-24T08:16:45;21.40;39.00
43561;DHT22;32305;46.410;17.394;2022-12-24T08:19:12;21.50;39.00
43561;DHT22;32305;46.410;17.394;2022-12-24T08:21:40;21.50;39.00
43561;DHT22;32305;46.410;17.394;2022-12-24T08:24:07;21.50;39.00
43561;DHT22;32305;46.410;17.394;2022-12-24T08:26:34;21.50;38.90
43561;DHT22;32305;46.410;17.394;2022-12-24T08:29:03;21.60;38.90
43561;DHT22;32305;46.410;17.394;2022-12-24T08:31:30;21.60;38.90
43561;DHT22;32305;46.410;17.394;2022-12-24T08:34:03;21.60;38.80
43561;DHT22;32305;46.410;17.394;2022-12-24T08:36:30;21.60;38.80
43561;DHT22;32305;46.410;17.394;2022-12-24T08:38:57;21.70;38.80
43561;DHT22;32305;46.410;17.394;2022-12-24T08:41:25;21.70;38.80
43561;DHT22;32305;46.410;17.394;2022-12-24T08:43:52;21.70;38.80
43561;DHT22;32305;46.410;17.394;2022-12-24T08:46:19;21.70;38.80
43561;DHT22;32305;46.410;17.394;2022-12-24T08:48:46;21.70;38.80
43561;DHT22;32305;46.410;17.394;2022-12-24T08:51:13;21.70;38.80
43561;DHT22;32305;46.410;17.394;2022-12-24T08:53:41;21.70;38.80
43561;DHT22;32305;46.410;17.394;2022-12-24T08:56:09;21.70;38.70
43561;DHT22;32305;46.410;17.394;2022-12-24T08:58:37;21.70;38.80
43561;DHT22;32305;46.410;17.394;2022-12-24T09:01:13;21.80;38.80
43561;DHT22;32305;46.410;17.394;2022-12-24T09:03:41;21.80;38.80
43561;DHT22;32305;46.410;17.394;2022-12-24T09:06:09;21.80;39.30
43561;DHT22;32305;46.410;17.394;2022-12-24T09:08:36;21.80;38.80
43561;DHT22;32305;46.410;17.394;2022-12-24T09:11:13;21.80;38.80
43561;DHT22;32305;46.410;17.394;2022-12-24T09:13:40;21.80;38.70
43561;DHT22;32305;46.410;17.394;2022-12-24T09:16:08;21.80;38.70
43561;DHT22;32305;46.410;17.394;2022-12-24T09:18:36;21.90;38.70
43561;DHT22;32305;46.410;17.394;2022-12-24T09:21:07;21.90;38.70
43561;DHT22;32305;46.410;17.394;2022-12-24T09:23:35;21.90;38.70
43561;DHT22;32305;46.410;17.394;2022-12-24T09:26:19;21.90;38.70
43561;DHT22;32305;46.410;17.394;2022-12-24T09:28:47;21.90;38.70
43561;DHT22;32305;46.410;17.394;2022-12-24T09:31:15;21.90;38.60
43561;DHT22;32305;46.410;17.394;2022-12-24T09:33:43;21.90;38.60
43561;DHT22;32305;46.410;17.394;2022-12-24T09:36:11;21.90;38.60
43561;DHT22;32305;46.410;17.394;2022-12-24T09:38:39;22.00;38.60
43561;DHT22;32305;46.410;17.394;2022-12-24T09:41:16;22.00;38.60
43561;DHT22;32305;46.410;17.394;2022-12-24T09:44:01;22.00;38.60
43561;DHT22;32305;46.410;17.394;2022-12-24T09:46:36;22.00;38.50
43561;DHT22;32305;46.410;17.394;2022-12-24T09:49:13;22.00;38.50
43561;DHT22;32305;46.410;17.394;2022-12-24T09:51:49;22.00;38.40
43561;DHT22;32305;46.410;17.394;2022-12-24T09:54:24;22.00;38.40
43561;DHT22;32305;46.410;17.394;2022-12-24T09:56:56;22.10;38.50
43561;DHT22;32305;46.410;17.394;2022-12-24T09:59:41;22.10;38.50
43561;DHT22;32305;46.410;17.394;2022-12-24T10:02:12;22.10;38.40
43561;DHT22;32305;46.410;17.394;2022-12-24T10:04:40;22.10;38.40
43561;DHT22;32305;46.410;17.394;2022-12-24T10:07:23;22.10;38.30
43561;DHT22;32305;46.410;17.394;2022-12-24T10:10:18;22.10;38.30
43561;DHT22;32305;46.410;17.394;2022-12-24T10:13:12;22.20;38.30
43561;DHT22;32305;46.410;17.394;2022-12-24T10:15:53;22.20;38.30
43561;DHT22;32305;46.410;17.394;2022-12-24T10:24:20;22.20;38.30
43561;DHT22;32305;46.410;17.394;2022-12-24T10:27:08;22.20;38.30
43561;DHT22;32305;46.410;17.394;2022-12-24T10:29:41;22.20;38.30
43561;DHT22;32305;46.410;17.394;2022-12-24T10:32:21;22.20;38.30
43561;DHT22;32305;46.410;17.394;2022-12-24T10:35:05;22.20;38.30
43561;DHT22;32305;46.410;17.394;2022-12-24T10:37:34;22.20;38.20
43561;DHT22;32305;46.410;17.394;2022-12-24T10:40:02;22.20;38.20
43561;DHT22;32305;46.410;17.394;2022-12-24T10:42:38;22.20;38.20
43561;DHT22;32305;46.410;17.394;2022-12-24T10:45:20;22.30;38.20
43561;DHT22;32305;46.410;17.394;2022-12-24T10:47:54;22.30;38.20
43561;DHT22;32305;46.410;17.394;2022-12-24T10:50:47;22.30;38.20
43561;DHT22;32305;46.410;17.394;2022-12-24T10:56:09;22.30;38.10
43561;DHT22;32305;46.410;17.394;2022-12-24T10:58:43;22.30;38.10
43561;DHT22;32305;46.410;17.394;2022-12-24T11:01:11;22.40;38.10
43561;DHT22;32305;46.410;17.394;2022-12-24T11:03:39;22.40;38.20
43561;DHT22;32305;46.410;17.394;2022-12-24T11:06:11;22.40;38.10
43561;DHT22;32305;46.410;17.394;2022-12-24T11:08:42;22.40;38.10
43561;DHT22;32305;46.410;17.394;2022-12-24T11:11:15;22.30;38.10
43561;DHT22;32305;46.410;17.394;2022-12-24T11:13:54;22.40;38.10
43561;DHT22;32305;46.410;17.394;2022-12-24T11:16:33;22.40;38.10
43561;DHT22;32305;46.410;17.394;2022-12-24T11:19:04;22.40;38.20
43561;DHT22;32305;46.410;17.394;2022-12-24T11:21:37;22.40;38.20
43561;DHT22;32305;46.410;17.394;2022-12-24T11:24:26;22.30;38.10
43561;DHT22;32305;46.410;17.394;2022-12-24T11:26:54;22.40;38.20
43561;DHT22;32305;46.410;17.394;2022-12-24T11:29:41;22.40;38.20
43561;DHT22;32305;46.410;17.394;2022-12-24T11:32:22;22.40;38.20
43561;DHT22;32305;46.410;17.394;2022-12-24T11:34:49;22.40;38.20
43561;DHT22;32305;46.410;17.394;2022-12-24T11:37:22;22.30;38.20
43561;DHT22;32305;46.410;17.394;2022-12-24T11:39:53;22.30;38.20
43561;DHT22;32305;46.410;17.394;2022-12-24T11:42:35;22.30;38.20
43561;DHT22;32305;46.410;17.394;2022-12-24T11:45:13;22.30;38.20
43561;DHT22;32305;46.410;17.394;2022-12-24T11:47:43;22.30;38.20
43561;DHT22;32305;46.410;17.394;2022-12-24T11:50:34;22.30;38.30
43561;DHT22;32305;46.410;17.394;2022-12-24T11:53:15;22.30;38.30
43561;DHT22;32305;46.410;17.394;2022-12-24T11:55:52;22.30;38.30
43561;DHT22;32305;46.410;17.394;2022-12-24T11:58:34;22.30;38.30
43561;DHT22;32305;46.410;17.394;2022-12-24T12:04:17;22.30;38.40
43561;DHT22;32305;46.410;17.394;2022-12-24T12:06:58;22.30;38.80
43561;DHT22;32305;46.410;17.394;2022-12-24T12:09:38;22.30;38.30
43561;DHT22;32305;46.410;17.394;2022-12-24T12:12:23;22.30;38.30
43561;DHT22;32305;46.410;17.394;2022-12-24T12:14:56;22.40;38.30
43561;DHT22;32305;46.410;17.394;2022-12-24T12:17:47;22.30;38.20
43561;DHT22;32305;46.410;17.394;2022-12-24T12:20:29;22.30;38.20
43561;DHT22;32305;46.410;17.394;2022-12-24T12:23:30;22.40;38.20
43561;DHT22;32305;46.410;17.394;2022-12-24T12:26:07;22.40;38.20
43561;DHT22;32305;46.410;17.394;2022-12-24T12:28:43;22.50;38.20
43561;DHT22;32305;46.410;17.394;2022-12-24T12:31:21;22.50;38.10
43561;DHT22;32305;46.410;17.394;2022-12-24T12:34:12;22.40;38.10
43561;DHT22;32305;46.410;17.394;2022-12-24T12:36:48;22.50;38.10
43561;DHT22;32305;46.410;17.394;2022-12-24T12:39:17;22.50;38.10
43561;DHT22;32305;46.410;17.394;2022-12-24T12:44:59;22.50;38.20
43561;DHT22;32305;46.410;17.394;2022-12-24T12:47:52;22.40;38.10
43561;DHT22;32305;46.410;17.394;2022-12-24T12:50:45;22.50;38.20
43561;DHT22;32305;46.410;17.394;2022-12-24T12:53:27;22.50;38.20
43561;DHT22;32305;46.410;17.394;2022-12-24T12:56:22;22.50;38.20
43561;DHT22;32305;46.410;17.394;2022-12-24T12:59:08;22.50;38.20
43561;DHT22;32305;46.410;17.394;2022-12-24T13:02:17;22.40;38.20
43561;DHT22;32305;46.410;17.394;2022-12-24T13:08:06;22.40;38.20
43561;DHT22;32305;46.410;17.394;2022-12-24T13:10:59;22.50;38.20
43561;DHT22;32305;46.410;17.394;2022-12-24T13:13:54;22.50;38.20
43561;DHT22;32305;46.410;17.394;2022-12-24T13:16:53;22.50;38.20
43561;DHT22;32305;46.410;17.394;2022-12-24T13:19:38;22.50;38.20
43561;DHT22;32305;46.410;17.394;2022-12-24T13:22:16;22.50;38.20
43561;DHT22;32305;46.410;17.394;2022-12-24T13:24:52;22.50;38.20
43561;DHT22;32305;46.410;17.394;2022-12-24T13:27:25;22.50;38.20
43561;DHT22;32305;46.410;17.394;2022-12-24T13:30:00;22.50;38.20
43561;DHT22;32305;46.410;17.394;2022-12-24T13:32:50;22.50;38.20
43561;DHT22;32305;46.410;17.394;2022-12-24T13:35:36;22.50;38.20
43561;DHT22;32305;46.410;17.394;2022-12-24T13:38:30;22.50;38.20
43561;DHT22;32305;46.410;17.394;2022-12-24T13:41:36;22.50;38.20
43561;DHT22;32305;46.410;17.394;2022-12-24T13:44:17;22.50;38.20
43561;DHT22;32305;46.410;17.394;2022-12-24T13:46:49;22.50;38.20
43561;DHT22;32305;46.410;17.394;2022-12-24T13:49:24;22.40;38.20
43561;DHT22;32305;46.410;17.394;2022-12-24T13:52:07;22.40;38.20
43561;DHT22;32305;46.410;17.394;2022-12-24T13:54:39;22.40;38.20
43561;DHT22;32305;46.410;17.394;2022-12-24T13:57:31;22.40;38.30
43561;DHT22;32305;46.410;17.394;2022-12-24T14:00:21;22.40;38.30
43561;DHT22;32305;46.410;17.394;2022-12-24T14:03:01;22.40;38.30
43561;DHT22;32305;46.410;17.394;2022-12-24T14:08:29;22.40;38.30
43561;DHT22;32305;46.410;17.394;2022-12-24T14:11:24;22.40;38.40
43561;DHT22;32305;46.410;17.394;2022-12-24T14:14:11;22.40;38.40
43561;DHT22;32305;46.410;17.394;2022-12-24T14:16:44;22.30;38.40
43561;DHT22;32305;46.410;17.394;2022-12-24T14:19:25;22.40;38.40
43561;DHT22;32305;46.410;17.394;2022-12-24T14:22:13;22.30;38.40
43561;DHT22;32305;46.410;17.394;2022-12-24T14:24:50;22.30;38.50
43561;DHT22;32305;46.410;17.394;2022-12-24T14:27:26;22.30;38.50
43561;DHT22;32305;46.410;17.394;2022-12-24T14:30:22;22.30;38.50
43561;DHT22;32305;46.410;17.394;2022-12-24T14:32:50;22.30;38.60
43561;DHT22;32305;46.410;17.394;2022-12-24T14:35:20;22.30;38.60
43561;DHT22;32305;46.410;17.394;2022-12-24T14:37:58;22.30;38.60
43561;DHT22;32305;46.410;17.394;2022-12-24T14:40:28;22.30;38.60
43561;DHT22;32305;46.410;17.394;2022-12-24T14:43:12;22.30;38.60
43561;DHT22;32305;46.410;17.394;2022-12-24T14:46:06;22.20;38.60
43561;DHT22;32305;46.410;17.394;2022-12-24T14:48:46;22.30;38.70
43561;DHT22;32305;46.410;17.394;2022-12-24T14:51:56;22.20;38.70
43561;DHT22;32305;46.410;17.394;2022-12-24T14:54:37;22.20;38.70
43561;DHT22;32305;46.410;17.394;2022-12-24T14:57:17;22.20;38.80
43561;DHT22;32305;46.410;17.394;2022-12-24T14:59:52;22.20;39.40
43561;DHT22;32305;46.410;17.394;2022-12-24T15:02:34;22.10;38.80
43561;DHT22;32305;46.410;17.394;2022-12-24T15:05:11;22.10;38.80
43561;DHT22;32305;46.410;17.394;2022-12-24T15:07:54;22.10;38.80
43561;DHT22;32305;46.410;17.394;2022-12-24T15:10:30;22.10;38.90
43561;DHT22;32305;46.410;17.394;2022-12-24T15:13:03;22.10;38.90
43561;DHT22;32305;46.410;17.394;2022-12-24T15:15:32;22.10;39.00
43561;DHT22;32305;46.410;17.394;2022-12-24T15:18:01;22.10;39.00
43561;DHT22;32305;46.410;17.394;2022-12-24T15:20:29;22.10;39.10
43561;DHT22;32305;46.410;17.394;2022-12-24T15:22:57;22.00;39.20
43561;DHT22;32305;46.410;17.394;2022-12-24T15:25:30;22.00;39.20
43561;DHT22;32305;46.410;17.394;2022-12-24T15:27:58;21.90;39.30
43561;DHT22;32305;46.410;17.394;2022-12-24T15:30:28;21.90;39.40
43561;DHT22;32305;46.410;17.394;2022-12-24T15:32:56;21.90;39.50
43561;DHT22;32305;46.410;17.394;2022-12-24T15:35:50;21.80;39.50
43561;DHT22;32305;46.410;17.394;2022-12-24T15:38:34;21.80;39.60
43561;DHT22;32305;46.410;17.394;2022-12-24T15:41:07;21.80;39.70
43561;DHT22;32305;46.410;17.394;2022-12-24T15:43:41;21.70;39.70
43561;DHT22;32305;46.410;17.394;2022-12-24T15:46:14;21.70;39.80
43561;DHT22;32305;46.410;17.394;2022-12-24T15:48:44;21.70;39.90
43561;DHT22;32305;46.410;17.394;2022-12-24T15:51:11;21.60;39.90
43561;DHT22;32305;46.410;17.394;2022-12-24T15:53:43;21.60;40.00
43561;DHT22;32305;46.410;17.394;2022-12-24T15:56:32;21.60;40.10
43561;DHT22;32305;46.410;17.394;2022-12-24T15:59:24;21.60;40.10
43561;DHT22;32305;46.410;17.394;2022-12-24T16:01:53;21.50;40.20
43561;DHT22;32305;46.410;17.394;2022-12-24T16:04:25;21.50;40.30
43561;DHT22;32305;46.410;17.394;2022-12-24T16:07:01;21.40;40.30
43561;DHT22;32305;46.410;17.394;2022-12-24T16:09:41;21.40;40.30
43561;DHT22;32305;46.410;17.394;2022-12-24T16:12:22;21.40;40.40
43561;DHT22;32305;46.410;17.394;2022-12-24T16:14:51;21.30;40.40
43561;DHT22;32305;46.410;17.394;2022-12-24T16:17:28;21.30;40.50
43561;DHT22;32305;46.410;17.394;2022-12-24T16:20:02;21.30;40.50
43561;DHT22;32305;46.410;17.394;2022-12-24T16:22:31;21.30;40.60
43561;DHT22;32305;46.410;17.394;2022-12-24T16:25:00;21.20;40.60
43561;DHT22;32305;46.410;17.394;2022-12-24T16:27:27;21.20;40.70